sensor_id;sensor_type;location;lat;lon;timestamp;temperature;humidity
13569;DHT22;6856;51.460;7.158;2022-09-17T00:00:51;14.50;64.00
13569;DHT22;6856;51.460;7.158;2022-09-17T00:03:27;14.50;64.40
13569;DHT22;6856;51.460;7.158;2022-09-17T00:06:03;14.50;64.40
13569;DHT22;6856;51.460;7.158;2022-09-17T00:08:39;14.50;64.50
13569;DHT22;6856;51.460;7.158;2022-09-17T00:11:15;14.50;64.60
13569;DHT22;6856;51.460;7.158;2022-09-17T00:13:54;14.50;64.50
13569;DHT22;6856;51.460;7.158;2022-09-17T00:16:29;14.50;64.50
13569;DHT22;6856;51.460;7.158;2022-09-17T00:19:05;14.50;64.50
13569;DHT22;6856;51.460;7.158;2022-09-17T00:21:41;14.40;64.50
13569;DHT22;6856;51.460;7.158;2022-09-17T00:24:15;14.40;64.60
13569;DHT22;6856;51.460;7.158;2022-09-17T00:26:49;14.40;64.70
13569;DHT22;6856;51.460;7.158;2022-09-17T00:29:25;14.40;64.60
13569;DHT22;6856;51.460;7.158;2022-09-17T00:31:59;14.40;64.50
13569;DHT22;6856;51.460;7.158;2022-09-17T00:34:32;14.40;64.60
13569;DHT22;6856;51.460;7.158;2022-09-17T00:37:06;14.40;64.70
13569;DHT22;6856;51.460;7.158;2022-09-17T00:39:39;14.30;64.70
13569;DHT22;6856;51.460;7.158;2022-09-17T00:42:14;14.30;64.70
13569;DHT22;6856;51.460;7.158;2022-09-17T00:44:51;14.30;64.80
13569;DHT22;6856;51.460;7.158;2022-09-17T00:47:29;14.30;64.80
13569;DHT22;6856;51.460;7.158;2022-09-17T00:50:08;14.30;64.70
13569;DHT22;6856;51.460;7.158;2022-09-17T00:52:52;14.30;64.80
13569;DHT22;6856;51.460;7.158;2022-09-17T00:55:31;14.30;64.90
13569;DHT22;6856;51.460;7.158;2022-09-17T00:58:10;14.20;64.90
13569;DHT22;6856;51.460;7.158;2022-09-17T01:00:46;14.20;65.00
13569;DHT22;6856;51.460;7.158;2022-09-17T01:03:19;14.20;65.00
13569;DHT22;6856;51.460;7.158;2022-09-17T01:06:03;14.20;65.10
13569;DHT22;6856;51.460;7.158;2022-09-17T01:08:58;14.20;65.20
13569;DHT22;6856;51.460;7.158;2022-09-17T01:12:05;14.20;65.40
13569;DHT22;6856;51.460;7.158;2022-09-17T01:14:59;14.20;65.50
13569;DHT22;6856;51.460;7.158;2022-09-17T01:17:46;14.10;65.50
13569;DHT22;6856;51.460;7.158;2022-09-17T01:20:49;14.10;65.40
13569;DHT22;6856;51.460;7.158;2022-09-17T01:24:16;14.10;65.50
13569;DHT22;6856;51.460;7.158;2022-09-17T01:31:00;14.10;65.60
13569;DHT22;6856;51.460;7.158;2022-09-17T01:33:47;14.10;65.60
13569;DHT22;6856;51.460;7.158;2022-09-17T01:36:38;14.10;66.10
13569;DHT22;6856;51.460;7.158;2022-09-17T01:39:28;14.00;65.30
13569;DHT22;6856;51.460;7.158;2022-09-17T01:42:13;14.00;65.40
13569;DHT22;6856;51.460;7.158;2022-09-17T01:44:54;14.00;65.40
13569;DHT22;6856;51.460;7.158;2022-09-17T01:47:38;14.00;65.50
13569;DHT22;6856;51.460;7.158;2022-09-17T01:50:19;14.00;65.70
13569;DHT22;6856;51.460;7.158;2022-09-17T01:53:03;14.00;65.60
13569;DHT22;6856;51.460;7.158;2022-09-17T01:55:39;14.00;65.70
13569;DHT22;6856;51.460;7.158;2022-09-17T01:58:20;14.00;65.70
13569;DHT22;6856;51.460;7.158;2022-09-17T02:01:00;13.90;65.70
13569;DHT22;6856;51.460;7.158;2022-09-17T02:03:40;14.00;65.70
13569;DHT22;6856;51.460;7.158;2022-09-17T02:06:18;13.90;65.90
13569;DHT22;6856;51.460;7.158;2022-09-17T02:08:59;14.00;66.10
13569;DHT22;6856;51.460;7.158;2022-09-17T02:11:38;13.90;66.10
13569;DHT22;6856;51.460;7.158;2022-09-17T02:14:17;13.90;66.20
13569;DHT22;6856;51.460;7.158;2022-09-17T02:17:01;14.00;66.40
13569;DHT22;6856;51.460;7.158;2022-09-17T02:19:40;14.00;66.40
13569;DHT22;6856;51.460;7.158;2022-09-17T02:22:20;14.00;66.30
13569;DHT22;6856;51.460;7.158;2022-09-17T02:25:02;14.00;66.00
13569;DHT22;6856;51.460;7.158;2022-09-17T02:27:51;14.00;66.40
13569;DHT22;6856;51.460;7.158;2022-09-17T02:30:30;14.00;66.40
13569;DHT22;6856;51.460;7.158;2022-09-17T02:33:06;14.00;66.30
13569;DHT22;6856;51.460;7.158;2022-09-17T02:35:45;14.00;66.30
13569;DHT22;6856;51.460;7.158;2022-09-17T02:38:24;14.00;66.30
13569;DHT22;6856;51.460;7.158;2022-09-17T02:41:11;14.00;66.20
13569;DHT22;6856;51.460;7.158;2022-09-17T02:43:55;14.00;66.40
13569;DHT22;6856;51.460;7.158;2022-09-17T02:46:54;14.00;66.10
13569;DHT22;6856;51.460;7.158;2022-09-17T02:49:45;14.00;66.20
13569;DHT22;6856;51.460;7.158;2022-09-17T02:52:46;13.90;66.20
13569;DHT22;6856;51.460;7.158;2022-09-17T02:55:30;13.90;66.40
13569;DHT22;6856;51.460;7.158;2022-09-17T02:58:20;13.90;66.20
13569;DHT22;6856;51.460;7.158;2022-09-17T03:01:02;13.90;66.50
13569;DHT22;6856;51.460;7.158;2022-09-17T03:03:42;13.90;66.40
13569;DHT22;6856;51.460;7.158;2022-09-17T03:06:21;13.90;66.50
13569;DHT22;6856;51.460;7.158;2022-09-17T03:08:56;13.90;66.40
13569;DHT22;6856;51.460;7.158;2022-09-17T03:11:30;13.90;66.40
13569;DHT22;6856;51.460;7.158;2022-09-17T03:14:04;13.90;65.90
13569;DHT22;6856;51.460;7.158;2022-09-17T03:16:38;13.90;66.40
13569;DHT22;6856;51.460;7.158;2022-09-17T03:19:11;13.90;66.30
13569;DHT22;6856;51.460;7.158;2022-09-17T03:21:45;13.90;66.30
13569;DHT22;6856;51.460;7.158;2022-09-17T03:24:20;13.90;66.40
13569;DHT22;6856;51.460;7.158;2022-09-17T03:26:54;13.80;66.30
13569;DHT22;6856;51.460;7.158;2022-09-17T03:29:27;13.80;66.30
13569;DHT22;6856;51.460;7.158;2022-09-17T03:32:01;13.80;66.30
13569;DHT22;6856;51.460;7.158;2022-09-17T03:34:35;13.80;66.30
13569;DHT22;6856;51.460;7.158;2022-09-17T03:37:11;13.80;66.40
13569;DHT22;6856;51.460;7.158;2022-09-17T03:39:47;13.80;66.30
13569;DHT22;6856;51.460;7.158;2022-09-17T03:42:20;13.80;66.20
13569;DHT22;6856;51.460;7.158;2022-09-17T03:44:54;13.80;66.40
13569;DHT22;6856;51.460;7.158;2022-09-17T03:47:27;13.80;66.40
13569;DHT22;6856;51.460;7.158;2022-09-17T03:50:01;13.80;66.60
13569;DHT22;6856;51.460;7.158;2022-09-17T03:52:34;13.80;66.50
13569;DHT22;6856;51.460;7.158;2022-09-17T03:55:10;13.70;66.50
13569;DHT22;6856;51.460;7.158;2022-09-17T03:57:47;13.80;66.60
13569;DHT22;6856;51.460;7.158;2022-09-17T04:00:20;13.80;65.90
13569;DHT22;6856;51.460;7.158;2022-09-17T04:02:54;13.70;66.30
13569;DHT22;6856;51.460;7.158;2022-09-17T04:05:27;13.70;66.30
13569;DHT22;6856;51.460;7.158;2022-09-17T04:08:01;13.80;66.40
13569;DHT22;6856;51.460;7.158;2022-09-17T04:10:36;13.70;66.40
13569;DHT22;6856;51.460;7.158;2022-09-17T04:13:10;13.70;66.20
13569;DHT22;6856;51.460;7.158;2022-09-17T04:15:45;13.70;66.30
13569;DHT22;6856;51.460;7.158;2022-09-17T04:18:19;13.70;66.40
13569;DHT22;6856;51.460;7.158;2022-09-17T04:20:52;13.70;66.00
13569;DHT22;6856;51.460;7.158;2022-09-17T04:23:26;13.70;66.20
13569;DHT22;6856;51.460;7.158;2022-09-17T04:26:00;13.90;66.20
13569;DHT22;6856;51.460;7.158;2022-09-17T04:28:34;13.60;66.00
13569;DHT22;6856;51.460;7.158;2022-09-17T04:31:08;13.60;65.90
13569;DHT22;6856;51.460;7.158;2022-09-17T04:33:42;13.60;66.00
13569;DHT22;6856;51.460;7.158;2022-09-17T04:36:17;13.80;66.00
13569;DHT22;6856;51.460;7.158;2022-09-17T04:38:50;13.60;66.20
13569;DHT22;6856;51.460;7.158;2022-09-17T04:41:25;13.60;66.10
13569;DHT22;6856;51.460;7.158;2022-09-17T04:43:59;13.60;66.10
13569;DHT22;6856;51.460;7.158;2022-09-17T04:46:32;13.70;66.10
13569;DHT22;6856;51.460;7.158;2022-09-17T04:49:06;13.60;66.20
13569;DHT22;6856;51.460;7.158;2022-09-17T04:51:39;13.60;66.10
13569;DHT22;6856;51.460;7.158;2022-09-17T04:54:13;13.60;66.20
13569;DHT22;6856;51.460;7.158;2022-09-17T04:56:48;13.60;66.20
13569;DHT22;6856;51.460;7.158;2022-09-17T04:59:22;13.60;66.30
13569;DHT22;6856;51.460;7.158;2022-09-17T05:01:55;13.60;66.30
13569;DHT22;6856;51.460;7.158;2022-09-17T05:04:37;13.60;66.20
13569;DHT22;6856;51.460;7.158;2022-09-17T05:07:11;13.60;66.30
13569;DHT22;6856;51.460;7.158;2022-09-17T05:09:44;13.60;66.20
13569;DHT22;6856;51.460;7.158;2022-09-17T05:12:19;13.70;66.20
13569;DHT22;6856;51.460;7.158;2022-09-17T05:14:53;13.60;65.90
13569;DHT22;6856;51.460;7.158;2022-09-17T05:17:29;13.60;65.60
13569;DHT22;6856;51.460;7.158;2022-09-17T05:20:03;13.70;66.00
13569;DHT22;6856;51.460;7.158;2022-09-17T05:22:41;13.70;66.20
13569;DHT22;6856;51.460;7.158;2022-09-17T05:25:17;13.70;66.10
13569;DHT22;6856;51.460;7.158;2022-09-17T05:27:56;13.70;66.00
13569;DHT22;6856;51.460;7.158;2022-09-17T05:30:32;13.60;65.80
13569;DHT22;6856;51.460;7.158;2022-09-17T05:33:06;13.60;66.00
13569;DHT22;6856;51.460;7.158;2022-09-17T05:35:39;13.60;65.50
13569;DHT22;6856;51.460;7.158;2022-09-17T05:38:14;13.70;65.90
13569;DHT22;6856;51.460;7.158;2022-09-17T05:40:49;13.70;65.90
13569;DHT22;6856;51.460;7.158;2022-09-17T05:43:26;13.70;66.00
13569;DHT22;6856;51.460;7.158;2022-09-17T05:46:02;13.70;66.00
13569;DHT22;6856;51.460;7.158;2022-09-17T05:48:36;13.70;66.20
13569;DHT22;6856;51.460;7.158;2022-09-17T05:51:10;13.70;66.00
13569;DHT22;6856;51.460;7.158;2022-09-17T05:53:43;13.70;66.20
13569;DHT22;6856;51.460;7.158;2022-09-17T05:56:17;13.70;66.10
13569;DHT22;6856;51.460;7.158;2022-09-17T05:58:56;13.70;66.00
13569;DHT22;6856;51.460;7.158;2022-09-17T06:01:30;13.70;66.10
13569;DHT22;6856;51.460;7.158;2022-09-17T06:04:03;13.80;66.00
13569;DHT22;6856;51.460;7.158;2022-09-17T06:06:38;13.80;66.10
13569;DHT22;6856;51.460;7.158;2022-09-17T06:09:12;13.80;66.00
13569;DHT22;6856;51.460;7.158;2022-09-17T06:11:46;13.80;65.90
13569;DHT22;6856;51.460;7.158;2022-09-17T06:14:21;13.90;66.00
13569;DHT22;6856;51.460;7.158;2022-09-17T06:16:55;13.90;65.80
13569;DHT22;6856;51.460;7.158;2022-09-17T06:19:28;14.10;65.80
13569;DHT22;6856;51.460;7.158;2022-09-17T06:22:02;13.90;65.50
13569;DHT22;6856;51.460;7.158;2022-09-17T06:24:36;13.90;65.50
13569;DHT22;6856;51.460;7.158;2022-09-17T06:27:09;13.90;65.50
13569;DHT22;6856;51.460;7.158;2022-09-17T06:29:44;13.90;65.50
13569;DHT22;6856;51.460;7.158;2022-09-17T06:32:18;13.90;65.50
13569;DHT22;6856;51.460;7.158;2022-09-17T06:34:51;14.00;65.70
13569;DHT22;6856;51.460;7.158;2022-09-17T06:37:27;14.00;65.70
13569;DHT22;6856;51.460;7.158;2022-09-17T06:40:01;14.00;65.60
13569;DHT22;6856;51.460;7.158;2022-09-17T06:42:35;14.00;65.80
13569;DHT22;6856;51.460;7.158;2022-09-17T06:45:11;14.00;65.80
13569;DHT22;6856;51.460;7.158;2022-09-17T06:47:47;14.00;65.40
13569;DHT22;6856;51.460;7.158;2022-09-17T06:50:22;13.90;65.50
13569;DHT22;6856;51.460;7.158;2022-09-17T06:52:56;14.00;65.40
13569;DHT22;6856;51.460;7.158;2022-09-17T06:55:29;13.90;65.40
13569;DHT22;6856;51.460;7.158;2022-09-17T06:58:03;13.90;65.20
13569;DHT22;6856;51.460;7.158;2022-09-17T07:00:39;13.90;65.50
13569;DHT22;6856;51.460;7.158;2022-09-17T07:03:13;13.90;65.60
13569;DHT22;6856;51.460;7.158;2022-09-17T07:05:52;13.80;65.40
13569;DHT22;6856;51.460;7.158;2022-09-17T07:08:25;13.90;65.50
13569;DHT22;6856;51.460;7.158;2022-09-17T07:10:59;13.80;65.60
13569;DHT22;6856;51.460;7.158;2022-09-17T07:13:33;13.80;65.70
13569;DHT22;6856;51.460;7.158;2022-09-17T07:16:09;13.80;65.80
13569;DHT22;6856;51.460;7.158;2022-09-17T07:18:43;13.80;66.00
13569;DHT22;6856;51.460;7.158;2022-09-17T07:21:16;13.80;65.90
13569;DHT22;6856;51.460;7.158;2022-09-17T07:23:50;13.80;66.20
13569;DHT22;6856;51.460;7.158;2022-09-17T07:26:24;13.80;66.10
13569;DHT22;6856;51.460;7.158;2022-09-17T07:28:57;13.80;66.50
13569;DHT22;6856;51.460;7.158;2022-09-17T07:31:33;13.90;66.50
13569;DHT22;6856;51.460;7.158;2022-09-17T07:34:07;14.00;67.30
13569;DHT22;6856;51.460;7.158;2022-09-17T07:36:42;14.00;67.40
13569;DHT22;6856;51.460;7.158;2022-09-17T07:39:17;14.10;67.60
13569;DHT22;6856;51.460;7.158;2022-09-17T07:41:50;14.20;67.90
13569;DHT22;6856;51.460;7.158;2022-09-17T07:44:24;14.30;67.50
13569;DHT22;6856;51.460;7.158;2022-09-17T07:46:58;14.40;67.20
13569;DHT22;6856;51.460;7.158;2022-09-17T07:49:32;14.40;66.60
13569;DHT22;6856;51.460;7.158;2022-09-17T07:52:06;14.50;66.60
13569;DHT22;6856;51.460;7.158;2022-09-17T07:54:39;14.50;66.60
13569;DHT22;6856;51.460;7.158;2022-09-17T07:57:13;14.70;66.50
13569;DHT22;6856;51.460;7.158;2022-09-17T07:59:47;14.70;66.10
13569;DHT22;6856;51.460;7.158;2022-09-17T08:02:21;14.90;66.00
13569;DHT22;6856;51.460;7.158;2022-09-17T08:04:59;14.90;65.20
13569;DHT22;6856;51.460;7.158;2022-09-17T08:07:32;14.90;64.60
13569;DHT22;6856;51.460;7.158;2022-09-17T08:10:06;15.00;64.50
13569;DHT22;6856;51.460;7.158;2022-09-17T08:12:40;15.00;64.60
13569;DHT22;6856;51.460;7.158;2022-09-17T08:15:13;15.00;64.50
13569;DHT22;6856;51.460;7.158;2022-09-17T08:17:49;15.10;64.40
13569;DHT22;6856;51.460;7.158;2022-09-17T08:20:23;15.10;64.20
13569;DHT22;6856;51.460;7.158;2022-09-17T08:22:59;15.20;64.00
13569;DHT22;6856;51.460;7.158;2022-09-17T08:25:33;15.30;63.90
13569;DHT22;6856;51.460;7.158;2022-09-17T08:28:06;15.30;64.10
13569;DHT22;6856;51.460;7.158;2022-09-17T08:30:41;15.40;64.10
13569;DHT22;6856;51.460;7.158;2022-09-17T08:33:31;15.50;63.90
13569;DHT22;6856;51.460;7.158;2022-09-17T08:36:07;15.60;63.40
13569;DHT22;6856;51.460;7.158;2022-09-17T08:38:43;15.70;63.30
13569;DHT22;6856;51.460;7.158;2022-09-17T08:41:23;15.80;62.90
13569;DHT22;6856;51.460;7.158;2022-09-17T08:44:14;15.90;62.00
13569;DHT22;6856;51.460;7.158;2022-09-17T08:47:07;16.00;61.60
13569;DHT22;6856;51.460;7.158;2022-09-17T08:49:51;16.00;61.70
13569;DHT22;6856;51.460;7.158;2022-09-17T08:52:46;16.10;61.50
13569;DHT22;6856;51.460;7.158;2022-09-17T08:55:38;16.20;61.40
13569;DHT22;6856;51.460;7.158;2022-09-17T08:58:48;16.30;61.60
13569;DHT22;6856;51.460;7.158;2022-09-17T09:01:50;16.40;61.50
13569;DHT22;6856;51.460;7.158;2022-09-17T09:04:55;16.40;61.10
13569;DHT22;6856;51.460;7.158;2022-09-17T09:07:39;16.50;60.70
13569;DHT22;6856;51.460;7.158;2022-09-17T09:10:18;16.50;60.40
13569;DHT22;6856;51.460;7.158;2022-09-17T09:12:55;16.60;60.40
13569;DHT22;6856;51.460;7.158;2022-09-17T09:15:35;16.60;60.20
13569;DHT22;6856;51.460;7.158;2022-09-17T09:18:17;16.70;59.90
13569;DHT22;6856;51.460;7.158;2022-09-17T09:20:59;16.70;59.50
13569;DHT22;6856;51.460;7.158;2022-09-17T09:23:49;16.80;59.30
13569;DHT22;6856;51.460;7.158;2022-09-17T09:26:36;16.90;59.10
13569;DHT22;6856;51.460;7.158;2022-09-17T09:29:23;17.00;58.50
13569;DHT22;6856;51.460;7.158;2022-09-17T09:32:20;17.00;58.60
13569;DHT22;6856;51.460;7.158;2022-09-17T09:35:01;17.10;58.10
13569;DHT22;6856;51.460;7.158;2022-09-17T09:37:52;17.20;58.40
13569;DHT22;6856;51.460;7.158;2022-09-17T09:40:36;17.30;58.20
13569;DHT22;6856;51.460;7.158;2022-09-17T09:43:18;17.30;57.60
13569;DHT22;6856;51.460;7.158;2022-09-17T09:46:08;17.30;57.40
13569;DHT22;6856;51.460;7.158;2022-09-17T09:48:56;17.30;56.90
13569;DHT22;6856;51.460;7.158;2022-09-17T09:51:45;17.30;57.00
13569;DHT22;6856;51.460;7.158;2022-09-17T09:54:37;17.30;57.20
13569;DHT22;6856;51.460;7.158;2022-09-17T09:57:33;17.30;56.90
13569;DHT22;6856;51.460;7.158;2022-09-17T10:00:34;17.30;56.50
13569;DHT22;6856;51.460;7.158;2022-09-17T10:03:13;17.30;56.10
13569;DHT22;6856;51.460;7.158;2022-09-17T10:05:55;17.30;57.10
13569;DHT22;6856;51.460;7.158;2022-09-17T10:08:32;17.30;56.90
13569;DHT22;6856;51.460;7.158;2022-09-17T10:11:20;17.40;56.70
13569;DHT22;6856;51.460;7.158;2022-09-17T10:14:13;17.40;56.30
13569;DHT22;6856;51.460;7.158;2022-09-17T10:17:24;17.40;55.90
13569;DHT22;6856;51.460;7.158;2022-09-17T10:20:14;17.20;55.60
13569;DHT22;6856;51.460;7.158;2022-09-17T10:22:54;17.40;56.20
13569;DHT22;6856;51.460;7.158;2022-09-17T10:25:29;17.50;56.50
13569;DHT22;6856;51.460;7.158;2022-09-17T10:28:34;17.50;57.10
13569;DHT22;6856;51.460;7.158;2022-09-17T10:31:17;17.60;56.30
13569;DHT22;6856;51.460;7.158;2022-09-17T10:33:55;17.80;56.20
13569;DHT22;6856;51.460;7.158;2022-09-17T10:36:41;17.90;55.90
13569;DHT22;6856;51.460;7.158;2022-09-17T10:39:31;18.00;55.60
13569;DHT22;6856;51.460;7.158;2022-09-17T10:42:12;18.10;55.40
13569;DHT22;6856;51.460;7.158;2022-09-17T10:44:52;18.20;55.60
13569;DHT22;6856;51.460;7.158;2022-09-17T10:47:28;18.40;55.80
13569;DHT22;6856;51.460;7.158;2022-09-17T10:50:14;18.50;55.20
13569;DHT22;6856;51.460;7.158;2022-09-17T10:52:54;18.60;54.50
13569;DHT22;6856;51.460;7.158;2022-09-17T10:55:30;18.60;54.80
13569;DHT22;6856;51.460;7.158;2022-09-17T10:58:23;18.50;54.50
13569;DHT22;6856;51.460;7.158;2022-09-17T11:01:25;18.50;54.20
13569;DHT22;6856;51.460;7.158;2022-09-17T11:04:32;18.40;54.50
13569;DHT22;6856;51.460;7.158;2022-09-17T11:07:30;18.20;54.60
13569;DHT22;6856;51.460;7.158;2022-09-17T11:10:12;18.00;54.60
13569;DHT22;6856;51.460;7.158;2022-09-17T11:13:06;17.80;55.20
13569;DHT22;6856;51.460;7.158;2022-09-17T11:16:09;17.60;55.40
13569;DHT22;6856;51.460;7.158;2022-09-17T11:18:56;17.50;55.50
13569;DHT22;6856;51.460;7.158;2022-09-17T11:21:41;17.40;55.60
13569;DHT22;6856;51.460;7.158;2022-09-17T11:24:42;17.20;55.70
13569;DHT22;6856;51.460;7.158;2022-09-17T11:27:52;17.00;55.80
13569;DHT22;6856;51.460;7.158;2022-09-17T11:30:42;16.80;56.20
13569;DHT22;6856;51.460;7.158;2022-09-17T11:33:39;16.60;56.30
13569;DHT22;6856;51.460;7.158;2022-09-17T11:36:28;16.40;56.60
13569;DHT22;6856;51.460;7.158;2022-09-17T11:39:12;16.30;57.00
13569;DHT22;6856;51.460;7.158;2022-09-17T11:41:52;16.20;57.90
13569;DHT22;6856;51.460;7.158;2022-09-17T11:44:31;16.10;58.40
13569;DHT22;6856;51.460;7.158;2022-09-17T11:47:13;16.10;59.10
13569;DHT22;6856;51.460;7.158;2022-09-17T11:49:55;16.20;60.00
13569;DHT22;6856;51.460;7.158;2022-09-17T11:52:36;16.20;60.10
13569;DHT22;6856;51.460;7.158;2022-09-17T11:55:19;16.30;60.50
13569;DHT22;6856;51.460;7.158;2022-09-17T11:58:01;16.40;60.20
13569;DHT22;6856;51.460;7.158;2022-09-17T12:00:48;16.50;59.70
13569;DHT22;6856;51.460;7.158;2022-09-17T12:03:31;16.50;59.00
13569;DHT22;6856;51.460;7.158;2022-09-17T12:06:10;16.50;58.80
13569;DHT22;6856;51.460;7.158;2022-09-17T12:08:55;16.50;58.70
13569;DHT22;6856;51.460;7.158;2022-09-17T12:11:36;16.50;58.90
13569;DHT22;6856;51.460;7.158;2022-09-17T12:14:19;16.50;58.80
13569;DHT22;6856;51.460;7.158;2022-09-17T12:16:57;16.60;59.00
13569;DHT22;6856;51.460;7.158;2022-09-17T12:19:34;16.70;58.80
13569;DHT22;6856;51.460;7.158;2022-09-17T12:22:16;16.70;58.80
13569;DHT22;6856;51.460;7.158;2022-09-17T12:24:54;16.80;58.80
13569;DHT22;6856;51.460;7.158;2022-09-17T12:27:35;16.90;59.00
13569;DHT22;6856;51.460;7.158;2022-09-17T12:30:13;17.00;58.60
13569;DHT22;6856;51.460;7.158;2022-09-17T12:33:12;17.10;58.50
13569;DHT22;6856;51.460;7.158;2022-09-17T12:36:18;17.10;58.20
13569;DHT22;6856;51.460;7.158;2022-09-17T12:39:35;17.10;58.40
13569;DHT22;6856;51.460;7.158;2022-09-17T12:42:48;17.20;58.40
13569;DHT22;6856;51.460;7.158;2022-09-17T12:45:46;17.20;58.00
13569;DHT22;6856;51.460;7.158;2022-09-17T12:48:45;17.20;57.70
13569;DHT22;6856;51.460;7.158;2022-09-17T12:54:54;17.10;58.00
13569;DHT22;6856;51.460;7.158;2022-09-17T12:58:03;17.10;58.10
13569;DHT22;6856;51.460;7.158;2022-09-17T13:00:47;17.10;58.10
13569;DHT22;6856;51.460;7.158;2022-09-17T13:03:28;17.10;58.30
13569;DHT22;6856;51.460;7.158;2022-09-17T13:06:30;17.20;58.20
13569;DHT22;6856;51.460;7.158;2022-09-17T13:12:59;17.20;58.20
13569;DHT22;6856;51.460;7.158;2022-09-17T13:15:48;17.30;57.80
13569;DHT22;6856;51.460;7.158;2022-09-17T13:18:33;17.30;57.80
13569;DHT22;6856;51.460;7.158;2022-09-17T13:21:39;17.30;58.00
13569;DHT22;6856;51.460;7.158;2022-09-17T13:24:22;17.40;58.00
13569;DHT22;6856;51.460;7.158;2022-09-17T13:27:01;17.50;57.90
